createdAt,value
2019-02-23T00:00:16.607Z,0.60
2019-02-23T00:02:49.531Z,0.60
2019-02-23T00:05:22.727Z,0.70
2019-02-23T00:07:55.807Z,0.70
2019-02-23T00:10:30.023Z,0.70
2019-02-23T00:13:04.870Z,0.70
2019-02-23T00:15:39.528Z,0.70
2019-02-23T00:18:09.592Z,0.70
2019-02-23T00:20:45.219Z,0.70
2019-02-23T00:23:22.751Z,0.70
2019-02-23T00:25:57.729Z,0.70
2019-02-23T00:28:29.982Z,0.80
2019-02-23T00:31:02.446Z,0.70
2019-02-23T00:33:32.986Z,0.70
2019-02-23T00:36:08.063Z,0.80
2019-02-23T00:38:42.696Z,0.80
2019-02-23T00:41:16.964Z,0.80
2019-02-23T00:43:51.746Z,0.80
2019-02-23T00:46:22.490Z,0.80
2019-02-23T00:48:54.308Z,0.80
2019-02-23T00:51:26.145Z,0.80
2019-02-23T00:54:01.839Z,0.90
2019-02-23T00:56:36.414Z,0.80
2019-02-23T00:59:10.239Z,0.90
2019-02-23T01:01:44.037Z,0.80
2019-02-23T01:04:18.670Z,0.90
2019-02-23T01:07:10.290Z,0.90
2019-02-23T01:09:45.198Z,0.90
2019-02-23T01:12:21.727Z,0.90
2019-02-23T01:14:55.879Z,0.90
2019-02-23T01:17:28.550Z,0.80
2019-02-23T01:20:03.565Z,0.90
2019-02-23T01:22:36.419Z,0.90
2019-02-23T01:25:07.375Z,0.90
2019-02-23T01:27:37.640Z,0.90
2019-02-23T01:30:13.810Z,0.90
2019-02-23T01:32:49.603Z,0.90
2019-02-23T01:35:22.824Z,0.90
2019-02-23T01:38:00.795Z,0.90
2019-02-23T01:40:35.591Z,0.90
2019-02-23T01:43:08.159Z,1.00
2019-02-23T01:45:42.650Z,0.90
2019-02-23T01:48:16.331Z,0.90
2019-02-23T01:50:48.275Z,1.00
2019-02-23T01:53:18.694Z,1.00
2019-02-23T01:55:52.576Z,1.10
2019-02-23T01:58:25.798Z,1.00
2019-02-23T02:00:59.614Z,1.00
2019-02-23T02:03:33.279Z,1.00
2019-02-23T02:06:06.086Z,1.10
2019-02-23T02:08:40.892Z,1.10
2019-02-23T02:11:18.046Z,1.10
2019-02-23T02:13:52.657Z,1.10
2019-02-23T02:16:25.407Z,1.10
2019-02-23T02:18:58.496Z,1.10
2019-02-23T02:21:31.391Z,1.20
2019-02-23T02:24:01.386Z,1.20
2019-02-23T02:26:32.914Z,1.20
2019-02-23T02:29:03.223Z,1.20
2019-02-23T02:31:37.854Z,1.20
2019-02-23T02:34:22.763Z,1.20
2019-02-23T02:36:56.927Z,1.20
2019-02-23T02:39:30.144Z,1.30
2019-02-23T02:42:03.934Z,1.30
2019-02-23T02:44:36.451Z,1.30
2019-02-23T02:47:11.271Z,1.30
2019-02-23T02:49:42.912Z,1.40
2019-02-23T02:52:15.753Z,1.30
2019-02-23T02:54:48.834Z,1.40
2019-02-23T02:57:22.664Z,1.30
2019-02-23T02:59:54.793Z,1.40
2019-02-23T03:02:28.902Z,1.40
2019-02-23T03:05:04.064Z,1.40
2019-02-23T03:07:36.800Z,1.40
2019-02-23T03:10:10.080Z,1.40
2019-02-23T03:12:45.546Z,1.40
2019-02-23T03:15:17.379Z,1.40
2019-02-23T03:17:49.952Z,1.40
2019-02-23T03:20:35.884Z,1.40
2019-02-23T03:22:57.048Z,1.40
2019-02-23T03:25:33.645Z,1.40
2019-02-23T03:28:06.400Z,1.50
2019-02-23T03:30:39.751Z,1.50
2019-02-23T03:33:12.293Z,1.60
2019-02-23T03:35:44.117Z,1.60
2019-02-23T03:38:18.726Z,1.60
2019-02-23T03:40:51.122Z,1.60
2019-02-23T03:43:23.951Z,1.60
2019-02-23T03:45:58.364Z,1.60
2019-02-23T03:48:32.802Z,1.70
2019-02-23T03:51:06.531Z,1.60
2019-02-23T03:53:41.310Z,1.70
2019-02-23T03:56:14.698Z,1.70
2019-02-23T03:58:49.156Z,1.70
2019-02-23T04:01:22.880Z,1.70
2019-02-23T04:03:56.831Z,1.70
2019-02-23T04:06:31.079Z,1.80
2019-02-23T04:09:05.296Z,1.80
2019-02-23T04:11:40.683Z,1.80
2019-02-23T04:14:14.623Z,1.80
2019-02-23T04:16:46.943Z,1.70
2019-02-23T04:19:20.735Z,1.80
2019-02-23T04:21:54.368Z,1.80
2019-02-23T04:24:26.660Z,1.80
2019-02-23T04:27:01.251Z,1.70
2019-02-23T04:29:34.878Z,1.70
2019-02-23T04:32:08.900Z,1.70
2019-02-23T04:34:42.084Z,1.80
2019-02-23T04:37:13.823Z,1.80
2019-02-23T04:39:49.513Z,1.80
2019-02-23T04:42:22.573Z,1.80
2019-02-23T04:44:56.128Z,1.80
2019-02-23T04:47:26.351Z,1.80
2019-02-23T04:50:00.312Z,1.80
2019-02-23T04:52:33.895Z,1.80
2019-02-23T04:55:06.343Z,1.80
2019-02-23T04:57:40.996Z,1.80
2019-02-23T05:00:14.501Z,1.80
2019-02-23T05:02:47.874Z,1.80
2019-02-23T05:05:20.464Z,1.80
2019-02-23T05:07:53.727Z,1.80
2019-02-23T05:10:27.469Z,1.90
2019-02-23T05:13:00.585Z,1.80
2019-02-23T05:15:35.985Z,1.80
2019-02-23T05:18:09.246Z,1.90
2019-02-23T05:20:43.616Z,1.90
2019-02-23T05:23:18.150Z,1.90
2019-02-23T05:25:50.502Z,1.90
2019-02-23T05:28:22.158Z,1.90
2019-02-23T05:30:52.072Z,1.90
2019-02-23T05:33:29.027Z,1.90
2019-02-23T05:36:01.637Z,2.00
2019-02-23T05:38:35.259Z,1.90
2019-02-23T05:41:08.579Z,2.00
2019-02-23T05:43:40.538Z,2.00
2019-02-23T05:46:12.886Z,1.90
2019-02-23T05:48:47.681Z,1.90
2019-02-23T05:51:20.515Z,2.00
2019-02-23T05:53:53.322Z,2.00
2019-02-23T05:56:30.223Z,2.00
2019-02-23T05:59:03.582Z,2.00
2019-02-23T06:01:36.421Z,2.00
2019-02-23T06:04:10.561Z,2.10
2019-02-23T06:06:44.359Z,2.10
2019-02-23T06:09:21.886Z,2.00
2019-02-23T06:11:56.059Z,2.10
2019-02-23T06:14:30.237Z,2.10
2019-02-23T06:17:05.235Z,2.10
2019-02-23T06:19:38.207Z,2.10
2019-02-23T06:22:10.936Z,2.10
2019-02-23T06:24:42.915Z,2.10
2019-02-23T06:27:13.363Z,2.10
2019-02-23T06:29:44.891Z,2.10
2019-02-23T06:32:18.417Z,2.10
2019-02-23T06:34:53.540Z,2.10
2019-02-23T06:37:29.291Z,2.10
2019-02-23T06:40:03.295Z,2.10
2019-02-23T06:42:36.645Z,2.10
2019-02-23T06:45:08.314Z,2.10
2019-02-23T06:47:39.330Z,2.20
2019-02-23T06:50:12.619Z,2.20
2019-02-23T06:52:46.340Z,2.20
2019-02-23T06:55:19.231Z,2.20
2019-02-23T06:57:52.876Z,2.20
2019-02-23T07:00:26.202Z,2.20
2019-02-23T07:02:59.370Z,2.30
2019-02-23T07:05:31.853Z,2.30
2019-02-23T07:08:03.526Z,2.30
2019-02-23T07:10:38.697Z,2.40
2019-02-23T07:13:11.091Z,2.40
2019-02-23T07:15:45.119Z,2.40
2019-02-23T07:18:19.017Z,2.40
2019-02-23T07:20:54.426Z,2.40
2019-02-23T07:23:28.279Z,2.40
2019-02-23T07:25:58.874Z,2.40
2019-02-23T07:28:28.544Z,2.50
2019-02-23T07:30:59.096Z,2.50
2019-02-23T07:33:32.860Z,2.50
2019-02-23T07:36:05.015Z,2.50
2019-02-23T07:38:37.016Z,2.50
2019-02-23T07:41:06.690Z,2.50
2019-02-23T07:43:37.924Z,2.60
2019-02-23T07:46:07.940Z,2.60
2019-02-23T07:48:38.943Z,2.70
2019-02-23T07:51:08.918Z,2.60
2019-02-23T07:53:39.021Z,2.60
2019-02-23T07:56:11.686Z,2.70
2019-02-23T07:58:42.866Z,2.70
2019-02-23T08:01:12.523Z,2.70
2019-02-23T08:03:43.647Z,2.80
2019-02-23T08:06:14.726Z,2.80
2019-02-23T08:08:45.239Z,2.80
2019-02-23T08:11:19.335Z,2.80
2019-02-23T08:13:50.752Z,2.90
2019-02-23T08:16:23.007Z,2.90
2019-02-23T08:21:31.233Z,2.90
2019-02-23T08:24:02.730Z,2.90
2019-02-23T08:26:33.642Z,2.90
2019-02-23T08:29:05.631Z,3.00
2019-02-23T08:31:41.988Z,3.00
2019-02-23T08:34:12.979Z,3.00
2019-02-23T08:36:44.360Z,3.10
2019-02-23T08:39:18.027Z,3.20
2019-02-23T08:41:50.706Z,3.20
2019-02-23T08:44:20.894Z,3.20
2019-02-23T08:46:53.259Z,3.30
2019-02-23T08:49:27.359Z,3.30
2019-02-23T08:52:03.139Z,3.30
2019-02-23T08:54:39.322Z,3.40
2019-02-23T08:57:13.095Z,3.40
2019-02-23T08:59:46.174Z,3.40
2019-02-23T09:02:19.647Z,3.40
2019-02-23T09:04:52.483Z,3.30
2019-02-23T09:07:25.163Z,3.30
2019-02-23T09:09:58.953Z,3.20
2019-02-23T09:12:32.639Z,3.30
2019-02-23T09:15:07.302Z,3.30
2019-02-23T09:17:43.115Z,3.40
2019-02-23T09:20:28.293Z,3.40
2019-02-23T09:22:59.821Z,3.40
2019-02-23T09:25:28.649Z,3.50
2019-02-23T09:27:58.560Z,3.60
2019-02-23T09:30:34.155Z,3.70
2019-02-23T09:33:07.367Z,3.60
2019-02-23T09:35:44.782Z,3.60
2019-02-23T09:38:19.019Z,3.60
2019-02-23T09:40:52.218Z,3.60
2019-02-23T09:43:25.919Z,3.70
2019-02-23T09:46:00.551Z,3.70
2019-02-23T09:48:30.661Z,3.80
2019-02-23T09:51:05.503Z,3.80
2019-02-23T09:53:40.265Z,3.90
2019-02-23T09:56:13.579Z,3.90
2019-02-23T09:58:44.735Z,3.90
2019-02-23T10:01:17.466Z,3.90
2019-02-23T10:03:52.199Z,3.90
2019-02-23T10:06:25.854Z,3.90
2019-02-23T10:08:59.519Z,4.00
2019-02-23T10:11:30.759Z,3.90
2019-02-23T10:14:01.473Z,4.00
2019-02-23T10:16:31.751Z,3.90
2019-02-23T10:19:02.243Z,3.90
2019-02-23T10:21:35.015Z,3.90
2019-02-23T10:24:08.640Z,3.90
2019-02-23T10:26:40.702Z,4.00
2019-02-23T10:29:12.327Z,4.00
2019-02-23T10:31:47.296Z,4.10
2019-02-23T10:34:21.183Z,4.10
2019-02-23T10:36:56.222Z,4.10
2019-02-23T10:39:31.743Z,4.10
2019-02-23T10:42:04.127Z,4.00
2019-02-23T10:44:37.030Z,4.00
2019-02-23T10:47:07.614Z,4.00
2019-02-23T10:49:38.074Z,4.10
2019-02-23T10:52:12.098Z,4.10
2019-02-23T10:54:47.999Z,4.10
2019-02-23T10:57:23.871Z,4.00
2019-02-23T10:59:58.367Z,4.00
2019-02-23T11:02:33.055Z,3.90
2019-02-23T11:05:07.867Z,3.90
2019-02-23T11:07:40.063Z,4.00
2019-02-23T11:10:14.183Z,4.10
2019-02-23T11:12:48.903Z,4.10
2019-02-23T11:15:23.881Z,4.10
2019-02-23T11:17:54.858Z,4.10
2019-02-23T11:20:28.383Z,4.10
2019-02-23T11:23:01.799Z,4.20
2019-02-23T11:25:32.354Z,4.10
2019-02-23T11:28:03.523Z,4.10
2019-02-23T11:30:34.511Z,4.00
2019-02-23T11:33:07.787Z,4.00
2019-02-23T11:35:41.936Z,4.00
2019-02-23T11:38:14.305Z,4.10
2019-02-23T11:40:49.024Z,4.20
2019-02-23T11:43:22.720Z,4.20
2019-02-23T11:45:54.561Z,4.20
2019-02-23T11:48:24.590Z,4.30
2019-02-23T11:50:54.571Z,4.30
2019-02-23T11:53:26.923Z,4.30
2019-02-23T11:56:01.347Z,4.20
2019-02-23T11:58:36.062Z,4.30
2019-02-23T12:01:08.194Z,4.20
2019-02-23T12:03:41.837Z,4.20
2019-02-23T12:06:16.570Z,4.20
2019-02-23T12:08:47.498Z,4.20
2019-02-23T12:11:17.166Z,4.20
2019-02-23T12:13:50.375Z,4.30
2019-02-23T12:16:23.663Z,4.40
2019-02-23T12:18:58.923Z,4.50
2019-02-23T12:21:30.154Z,4.50
2019-02-23T12:24:05.915Z,4.60
2019-02-23T12:26:36.199Z,4.70
2019-02-23T12:29:10.694Z,4.80
2019-02-23T12:31:45.120Z,4.80
2019-02-23T12:34:19.854Z,5.00
2019-02-23T12:36:53.094Z,5.00
2019-02-23T12:39:28.871Z,4.90
2019-02-23T12:42:02.464Z,4.90
2019-02-23T12:44:35.722Z,4.80
2019-02-23T12:47:08.910Z,4.80
2019-02-23T12:49:42.015Z,4.70
2019-02-23T12:52:17.119Z,4.70
2019-02-23T12:54:51.815Z,4.60
2019-02-23T12:57:25.026Z,4.60
2019-02-23T12:59:57.769Z,4.60
2019-02-23T13:02:30.266Z,4.60
2019-02-23T13:05:04.875Z,4.60
2019-02-23T13:07:38.946Z,4.60
2019-02-23T13:10:21.328Z,4.50
2019-02-23T13:13:31.263Z,4.40
2019-02-23T13:17:02.631Z,4.40
2019-02-23T13:20:16.364Z,4.40
2019-02-23T13:23:42.339Z,4.40
2019-02-23T13:26:49.191Z,4.40
2019-02-23T13:30:19.966Z,4.40
2019-02-23T13:33:30.916Z,4.50
2019-02-23T13:36:34.239Z,4.50
2019-02-23T13:39:37.985Z,4.60
2019-02-23T13:42:59.111Z,4.60
2019-02-23T13:46:00.258Z,4.60
2019-02-23T13:49:31.734Z,4.60
2019-02-23T13:52:30.422Z,4.50
2019-02-23T13:55:51.423Z,4.50
2019-02-23T13:58:35.908Z,4.50
2019-02-23T14:01:36.671Z,4.50
2019-02-23T14:04:37.616Z,4.50
2019-02-23T14:07:54.591Z,4.50
2019-02-23T14:10:46.343Z,4.50
2019-02-23T14:14:22.105Z,4.50
2019-02-23T14:17:16.325Z,4.60
2019-02-23T14:20:20.959Z,4.60
2019-02-23T14:23:51.359Z,4.50
2019-02-23T14:27:16.959Z,4.50
2019-02-23T14:30:42.876Z,4.50
2019-02-23T14:33:51.724Z,4.40
2019-02-23T14:37:06.974Z,4.40
2019-02-23T14:40:14.527Z,4.40
2019-02-23T14:43:20.891Z,4.40
2019-02-23T14:46:46.399Z,4.40
2019-02-23T14:49:57.747Z,4.40
2019-02-23T14:53:07.391Z,4.40
2019-02-23T14:56:26.150Z,4.30
2019-02-23T14:59:34.022Z,4.40
2019-02-23T15:02:56.710Z,4.40
2019-02-23T15:06:15.655Z,4.40
2019-02-23T15:09:47.163Z,4.30
2019-02-23T15:12:57.918Z,4.20
2019-02-23T15:16:27.899Z,4.10
2019-02-23T15:19:37.252Z,4.10
2019-02-23T15:22:48.580Z,4.10
2019-02-23T15:25:50.259Z,4.10
2019-02-23T15:28:59.199Z,4.10
2019-02-23T15:32:09.763Z,4.10
2019-02-23T15:35:33.635Z,4.00
2019-02-23T15:38:52.168Z,4.00
2019-02-23T15:42:03.960Z,4.00
2019-02-23T15:45:21.552Z,4.00
2019-02-23T15:48:26.618Z,4.00
2019-02-23T15:50:59.831Z,3.90
2019-02-23T15:53:34.633Z,3.90
2019-02-23T15:56:07.435Z,3.90
2019-02-23T15:58:41.450Z,3.90
2019-02-23T16:01:14.673Z,3.90
2019-02-23T16:03:47.550Z,3.80
2019-02-23T16:06:21.384Z,3.80
2019-02-23T16:08:51.846Z,3.70
2019-02-23T16:11:21.867Z,3.70
2019-02-23T16:13:51.908Z,3.70
2019-02-23T16:16:23.231Z,3.60
2019-02-23T16:18:56.456Z,3.60
2019-02-23T16:21:30.374Z,3.60
2019-02-23T16:24:07.115Z,3.70
2019-02-23T16:26:38.723Z,3.70
2019-02-23T16:29:11.808Z,3.60
2019-02-23T16:31:45.699Z,3.60
2019-02-23T16:34:17.531Z,3.60
2019-02-23T16:36:48.911Z,3.60
2019-02-23T16:39:22.940Z,3.60
2019-02-23T16:41:56.035Z,3.60
2019-02-23T16:44:32.767Z,3.50
2019-02-23T16:47:06.567Z,3.50
2019-02-23T16:49:40.394Z,3.50
2019-02-23T16:52:13.344Z,3.50
2019-02-23T16:54:46.631Z,3.50
2019-02-23T16:57:19.615Z,3.50
2019-02-23T16:59:52.488Z,3.50
2019-02-23T17:02:27.167Z,3.50
2019-02-23T17:05:01.822Z,3.50
2019-02-23T17:07:35.494Z,3.50
2019-02-23T17:10:09.314Z,3.40
2019-02-23T17:12:43.150Z,3.40
2019-02-23T17:15:17.490Z,3.50
2019-02-23T17:17:50.494Z,3.50
2019-02-23T17:20:26.132Z,3.50
2019-02-23T17:23:01.772Z,3.40
2019-02-23T17:25:33.636Z,3.40
2019-02-23T17:28:07.554Z,3.40
2019-02-23T17:30:41.770Z,3.30
2019-02-23T17:33:13.727Z,3.30
2019-02-23T17:35:44.034Z,3.40
2019-02-23T17:38:17.733Z,3.30
2019-02-23T17:40:49.572Z,3.30
2019-02-23T17:43:23.682Z,3.30
2019-02-23T17:46:00.479Z,3.40
2019-02-23T17:48:35.276Z,3.30
2019-02-23T17:51:07.647Z,3.30
2019-02-23T17:53:42.374Z,3.30
2019-02-23T17:56:15.457Z,3.30
2019-02-23T17:58:48.186Z,3.30
2019-02-23T18:01:22.279Z,3.20
2019-02-23T18:03:54.369Z,3.30
2019-02-23T18:06:26.656Z,3.30
2019-02-23T18:08:58.787Z,3.20
2019-02-23T18:11:31.583Z,3.20
2019-02-23T18:14:04.703Z,3.20
2019-02-23T18:16:38.591Z,3.20
2019-02-23T18:19:13.602Z,3.20
2019-02-23T18:21:48.515Z,3.30
2019-02-23T18:24:21.571Z,3.20
2019-02-23T18:26:54.426Z,3.20
2019-02-23T18:29:28.515Z,3.20
2019-02-23T18:32:03.776Z,3.20
2019-02-23T18:34:37.119Z,3.20
2019-02-23T18:37:09.350Z,3.20
2019-02-23T18:39:48.959Z,3.20
2019-02-23T18:42:22.789Z,3.20
2019-02-23T18:44:56.798Z,3.20
2019-02-23T18:47:28.515Z,3.20
2019-02-23T18:50:02.404Z,3.20
2019-02-23T18:52:35.627Z,3.20
2019-02-23T18:55:09.792Z,3.20
2019-02-23T18:57:41.152Z,3.20
2019-02-23T19:00:23.975Z,3.20
2019-02-23T19:02:51.328Z,3.20
2019-02-23T19:05:26.049Z,3.20
2019-02-23T19:07:59.743Z,3.10
2019-02-23T19:10:34.239Z,3.10
2019-02-23T19:13:08.603Z,3.20
2019-02-23T19:15:39.622Z,3.20
2019-02-23T19:18:12.703Z,3.10
2019-02-23T19:20:46.401Z,3.10
2019-02-23T19:23:21.063Z,3.10
2019-02-23T19:25:53.231Z,3.10
2019-02-23T19:28:27.531Z,3.10
2019-02-23T19:30:58.926Z,3.20
2019-02-23T19:33:31.052Z,3.20
2019-02-23T19:36:07.106Z,3.20
2019-02-23T19:38:40.863Z,3.20
2019-02-23T19:41:15.654Z,3.20
2019-02-23T19:43:49.670Z,3.20
2019-02-23T19:46:20.326Z,3.20
2019-02-23T19:48:52.259Z,3.20
2019-02-23T19:51:27.019Z,3.20
2019-02-23T19:54:00.543Z,3.20
2019-02-23T19:56:33.124Z,3.10
2019-02-23T19:59:04.330Z,3.10
2019-02-23T20:01:34.595Z,3.10
2019-02-23T20:04:04.318Z,3.10
2019-02-23T20:06:34.858Z,3.10
2019-02-23T20:09:06.526Z,3.10
2019-02-23T20:11:39.744Z,3.10
2019-02-23T20:14:14.622Z,3.10
2019-02-23T20:16:49.566Z,3.10
2019-02-23T20:19:25.122Z,3.20
2019-02-23T20:21:57.409Z,3.20
2019-02-23T20:24:31.949Z,3.20
2019-02-23T20:27:05.826Z,3.20
2019-02-23T20:29:40.323Z,3.10
2019-02-23T20:32:14.184Z,3.10
2019-02-23T20:34:46.983Z,3.10
2019-02-23T20:37:20.712Z,3.10
2019-02-23T20:39:53.485Z,3.10
2019-02-23T20:42:25.718Z,3.10
2019-02-23T20:45:00.287Z,3.10
2019-02-23T20:47:36.066Z,3.10
2019-02-23T20:50:09.436Z,3.10
2019-02-23T20:52:43.094Z,3.00
2019-02-23T20:55:18.806Z,3.10
2019-02-23T20:57:52.994Z,3.10
2019-02-23T21:00:26.838Z,3.10
2019-02-23T21:03:01.887Z,3.10
2019-02-23T21:05:35.456Z,3.10
2019-02-23T21:08:08.327Z,3.10
2019-02-23T21:10:39.086Z,3.10
2019-02-23T21:13:09.750Z,3.10
2019-02-23T21:15:40.819Z,3.10
2019-02-23T21:18:16.895Z,3.10
2019-02-23T21:20:51.653Z,3.10
2019-02-23T21:23:25.062Z,3.10
2019-02-23T21:25:58.466Z,3.10
2019-02-23T21:28:32.632Z,3.10
2019-02-23T21:31:04.904Z,3.10
2019-02-23T21:33:39.199Z,3.10
2019-02-23T21:36:13.854Z,3.10
2019-02-23T21:38:44.399Z,3.10
2019-02-23T21:41:14.601Z,3.10
2019-02-23T21:43:44.711Z,3.10
2019-02-23T21:46:15.502Z,3.10
2019-02-23T21:48:47.999Z,3.10
2019-02-23T21:51:22.110Z,3.10
2019-02-23T21:53:58.795Z,3.10
2019-02-23T21:56:32.519Z,3.10
2019-02-23T21:59:10.527Z,3.10
2019-02-23T22:01:43.813Z,3.10
2019-02-23T22:04:16.579Z,3.10
2019-02-23T22:06:49.427Z,3.10
2019-02-23T22:09:20.107Z,3.10
2019-02-23T22:11:50.076Z,3.10
2019-02-23T22:14:25.175Z,3.00
2019-02-23T22:16:58.370Z,3.10
2019-02-23T22:19:29.727Z,3.10
2019-02-23T22:22:03.535Z,3.10
2019-02-23T22:24:36.423Z,3.00
2019-02-23T22:27:08.512Z,3.10
2019-02-23T22:29:45.224Z,3.10
2019-02-23T22:32:19.019Z,3.10
2019-02-23T22:34:53.695Z,3.10
2019-02-23T22:37:27.420Z,3.10
2019-02-23T22:40:00.799Z,3.10
2019-02-23T22:42:34.398Z,3.10
2019-02-23T22:45:08.490Z,3.10
2019-02-23T22:47:43.390Z,3.20
2019-02-23T22:50:18.558Z,3.10
2019-02-23T22:52:50.988Z,3.10
2019-02-23T22:55:26.398Z,3.10
2019-02-23T22:58:01.059Z,3.10
2019-02-23T23:00:50.728Z,3.10
2019-02-23T23:03:23.356Z,3.10
2019-02-23T23:05:56.063Z,3.10
2019-02-23T23:08:31.970Z,3.10
2019-02-23T23:11:06.602Z,3.10
2019-02-23T23:13:41.290Z,3.10
2019-02-23T23:16:17.338Z,3.10
2019-02-23T23:18:49.140Z,3.10
2019-02-23T23:21:20.215Z,3.10
2019-02-23T23:23:54.851Z,3.10
2019-02-23T23:26:27.148Z,3.10
2019-02-23T23:29:00.927Z,3.10
2019-02-23T23:31:36.926Z,3.20
2019-02-23T23:34:09.205Z,3.10
2019-02-23T23:36:39.851Z,3.10
2019-02-23T23:39:17.283Z,3.20
2019-02-23T23:41:49.663Z,3.20
2019-02-23T23:44:22.975Z,3.20
2019-02-23T23:46:53.839Z,3.10
2019-02-23T23:49:27.648Z,3.10
2019-02-23T23:52:01.954Z,3.10
2019-02-23T23:54:35.711Z,3.10
2019-02-23T23:57:08.898Z,3.10
2019-02-23T23:59:42.495Z,3.10
